STW2401 ULLI-URWW
Flight info
| Callsign | STW2401 |
|---|---|
| Flight time | N/A |
| Altitude | 39000 |
| Route | K0878F390 SUGIN1C SUGIN T873 TOKNU L4 LINRU T614 OSPER T828 OLBEG N72 ST ST2G |
| Aircraft | B772/H-SDE2E3FGHIJ5LORVWXY/LB1D1 |
Departure
| Time | N/A |
|---|---|
| Airport | Pulkovo Airport (ULLI) |
Arrival
| Time | 2026-05-07 15:56 |
|---|---|
| Airport | Volgograd International Airport (URWW) |
| Time | Latitude | Longitude | Altitude | Speed | Heading |
|---|---|---|---|---|---|
| 2026-05-07 14:46 | 55.60770 | 37.72845 | 38879 ft | 511 kts | 154° |
| 2026-05-07 14:46 | 55.54814 | 37.78468 | 38902 ft | 512 kts | 154° |
| 2026-05-07 14:47 | 55.52520 | 37.80629 | 38892 ft | 511 kts | 154° |
| 2026-05-07 14:47 | 55.46722 | 37.86082 | 38885 ft | 510 kts | 154° |
| 2026-05-07 14:49 | 55.44331 | 37.88325 | 38887 ft | 510 kts | 155° |
| 2026-05-07 14:49 | 55.37913 | 37.93361 | 38883 ft | 506 kts | 167° |
| 2026-05-07 14:50 | 55.31226 | 37.95723 | 38883 ft | 505 kts | 173° |
| 2026-05-07 14:50 | 55.24344 | 37.97772 | 38877 ft | 506 kts | 173° |
| 2026-05-07 14:51 | 55.17406 | 37.99827 | 38891 ft | 506 kts | 173° |
| 2026-05-07 14:51 | 55.10495 | 38.01868 | 38886 ft | 506 kts | 173° |
| 2026-05-07 14:52 | 55.03599 | 38.03898 | 38894 ft | 505 kts | 173° |
| 2026-05-07 14:52 | 55.00391 | 38.04839 | 38853 ft | 506 kts | 173° |
| 2026-05-07 14:54 | 54.95658 | 38.06225 | 38885 ft | 507 kts | 173° |
| 2026-05-07 14:54 | 54.88746 | 38.08244 | 38897 ft | 509 kts | 173° |
| 2026-05-07 14:55 | 54.81747 | 38.10281 | 38897 ft | 509 kts | 173° |
| 2026-05-07 14:55 | 54.74789 | 38.12299 | 38902 ft | 509 kts | 173° |
| 2026-05-07 14:56 | 54.67836 | 38.14310 | 38905 ft | 510 kts | 173° |
| 2026-05-07 14:56 | 54.60858 | 38.16321 | 38910 ft | 509 kts | 173° |
| 2026-05-07 14:57 | 54.53914 | 38.18315 | 38918 ft | 508 kts | 172° |
| 2026-05-07 14:57 | 54.46970 | 38.20305 | 38922 ft | 507 kts | 172° |
| 2026-05-07 14:58 | 54.40066 | 38.22285 | 38929 ft | 507 kts | 172° |
| 2026-05-07 14:58 | 54.33213 | 38.25016 | 38936 ft | 510 kts | 160° |
| 2026-05-07 14:59 | 54.26703 | 38.29852 | 38938 ft | 512 kts | 157° |
| 2026-05-07 14:59 | 54.20232 | 38.34804 | 38940 ft | 512 kts | 157° |
| 2026-05-07 15:00 | 54.13754 | 38.39740 | 38945 ft | 512 kts | 157° |
| 2026-05-07 15:00 | 54.07272 | 38.44660 | 38948 ft | 510 kts | 157° |
| 2026-05-07 15:01 | 54.00801 | 38.49551 | 38944 ft | 509 kts | 157° |
| 2026-05-07 15:01 | 53.94350 | 38.54411 | 38949 ft | 509 kts | 157° |
| 2026-05-07 15:02 | 53.87911 | 38.59244 | 38940 ft | 510 kts | 156° |
| 2026-05-07 15:02 | 53.81472 | 38.64061 | 38946 ft | 509 kts | 157° |
| 2026-05-07 15:03 | 53.74998 | 38.68888 | 38950 ft | 508 kts | 158° |
| 2026-05-07 15:03 | 53.67505 | 38.74453 | 38962 ft | 508 kts | 158° |
| 2026-05-07 15:04 | 53.62083 | 38.78467 | 38960 ft | 508 kts | 158° |
| 2026-05-07 15:04 | 53.55637 | 38.83224 | 38955 ft | 508 kts | 158° |
| 2026-05-07 15:05 | 53.49185 | 38.87970 | 38963 ft | 508 kts | 158° |
| 2026-05-07 15:05 | 53.42743 | 38.92686 | 38963 ft | 507 kts | 158° |
| 2026-05-07 15:06 | 53.36246 | 38.97237 | 38969 ft | 508 kts | 158° |
| 2026-05-07 15:06 | 53.29726 | 39.01775 | 38977 ft | 508 kts | 158° |
| 2026-05-07 15:07 | 53.23238 | 39.06282 | 38986 ft | 508 kts | 158° |
| 2026-05-07 15:07 | 53.16737 | 39.10786 | 38972 ft | 507 kts | 158° |
| 2026-05-07 15:08 | 53.10272 | 39.15252 | 38973 ft | 508 kts | 158° |
| 2026-05-07 15:08 | 53.03756 | 39.19740 | 38978 ft | 507 kts | 158° |
| 2026-05-07 15:09 | 52.97237 | 39.24216 | 38979 ft | 506 kts | 158° |
| 2026-05-07 15:09 | 52.90763 | 39.28646 | 38975 ft | 506 kts | 158° |
| 2026-05-07 15:10 | 52.84263 | 39.33081 | 38970 ft | 505 kts | 158° |
| 2026-05-07 15:10 | 52.77768 | 39.37498 | 38971 ft | 506 kts | 158° |
| 2026-05-07 15:11 | 52.71271 | 39.41901 | 38973 ft | 506 kts | 158° |
| 2026-05-07 15:11 | 52.64792 | 39.46278 | 38969 ft | 505 kts | 158° |
| 2026-05-07 15:12 | 52.58339 | 39.50624 | 38973 ft | 504 kts | 158° |
| 2026-05-07 15:12 | 52.51841 | 39.54987 | 38965 ft | 503 kts | 158° |
| 2026-05-07 15:13 | 52.45395 | 39.59300 | 38967 ft | 502 kts | 158° |
| 2026-05-07 15:13 | 52.39078 | 39.64125 | 38967 ft | 504 kts | 153° |
| 2026-05-07 15:14 | 52.32862 | 39.69341 | 38964 ft | 504 kts | 154° |
| 2026-05-07 15:14 | 52.26614 | 39.74521 | 38973 ft | 503 kts | 154° |
| 2026-05-07 15:15 | 52.20386 | 39.79640 | 38971 ft | 502 kts | 154° |
| 2026-05-07 15:15 | 52.14159 | 39.84728 | 38967 ft | 501 kts | 154° |
| 2026-05-07 15:16 | 52.07929 | 39.89793 | 38969 ft | 502 kts | 154° |
| 2026-05-07 15:16 | 52.01736 | 39.94808 | 38971 ft | 500 kts | 154° |
| 2026-05-07 15:17 | 51.95509 | 39.99857 | 38971 ft | 499 kts | 153° |
| 2026-05-07 15:17 | 51.89322 | 40.04870 | 38978 ft | 500 kts | 154° |
| 2026-05-07 15:18 | 51.83084 | 40.09906 | 38973 ft | 501 kts | 154° |
| 2026-05-07 15:18 | 51.76882 | 40.14895 | 38982 ft | 500 kts | 154° |
| 2026-05-07 15:19 | 51.70752 | 40.20062 | 38986 ft | 498 kts | 148° |
| 2026-05-07 15:19 | 51.64930 | 40.26050 | 38979 ft | 499 kts | 147° |
| 2026-05-07 15:20 | 51.59094 | 40.32077 | 38980 ft | 498 kts | 147° |
| 2026-05-07 15:20 | 51.53305 | 40.38032 | 38983 ft | 496 kts | 147° |
| 2026-05-07 15:21 | 51.47523 | 40.43962 | 38959 ft | 495 kts | 147° |
| 2026-05-07 15:21 | 51.41690 | 40.49920 | 38970 ft | 495 kts | 147° |
| 2026-05-07 15:22 | 51.35926 | 40.55787 | 38974 ft | 494 kts | 147° |
| 2026-05-07 15:22 | 51.30435 | 40.62317 | 38979 ft | 494 kts | 135° |
| 2026-05-07 15:23 | 51.25708 | 40.70247 | 38976 ft | 494 kts | 134° |
| 2026-05-07 15:23 | 51.21044 | 40.78171 | 38967 ft | 494 kts | 134° |
| 2026-05-07 15:24 | 51.16334 | 40.86141 | 38969 ft | 495 kts | 134° |
| 2026-05-07 15:24 | 51.11640 | 40.94058 | 38978 ft | 496 kts | 134° |
| 2026-05-07 15:25 | 51.06914 | 41.01999 | 38960 ft | 496 kts | 134° |
| 2026-05-07 15:25 | 51.02158 | 41.09965 | 38960 ft | 495 kts | 134° |
| 2026-05-07 15:26 | 50.97452 | 41.17819 | 38961 ft | 493 kts | 134° |
| 2026-05-07 15:26 | 50.92722 | 41.25689 | 38947 ft | 495 kts | 134° |
| 2026-05-07 15:27 | 50.87968 | 41.33575 | 38969 ft | 496 kts | 134° |
| 2026-05-07 15:27 | 50.83197 | 41.41465 | 38959 ft | 497 kts | 134° |
| 2026-05-07 15:28 | 50.78385 | 41.49394 | 38963 ft | 499 kts | 134° |
| 2026-05-07 15:28 | 50.73575 | 41.57298 | 38964 ft | 501 kts | 134° |
| 2026-05-07 15:29 | 50.68758 | 41.65186 | 38964 ft | 503 kts | 134° |
| 2026-05-07 15:29 | 50.63971 | 41.73011 | 38971 ft | 504 kts | 134° |
| 2026-05-07 15:30 | 50.59125 | 41.80916 | 38973 ft | 504 kts | 134° |
| 2026-05-07 15:30 | 50.54248 | 41.88847 | 38948 ft | 504 kts | 134° |
| 2026-05-07 15:31 | 50.49401 | 41.96704 | 38954 ft | 505 kts | 134° |
| 2026-05-07 15:31 | 50.44488 | 42.04642 | 38955 ft | 506 kts | 134° |
| 2026-05-07 15:32 | 50.39620 | 42.12484 | 38999 ft | 507 kts | 134° |
| 2026-05-07 15:32 | 50.34674 | 42.20402 | 38981 ft | 507 kts | 136° |
| 2026-05-07 15:33 | 50.29435 | 42.27737 | 38977 ft | 507 kts | 138° |
| 2026-05-07 15:33 | 50.24171 | 42.34995 | 38969 ft | 506 kts | 138° |
| 2026-05-07 15:34 | 50.18936 | 42.42228 | 38985 ft | 506 kts | 138° |
| 2026-05-07 15:34 | 50.13698 | 42.49463 | 38978 ft | 505 kts | 138° |
| 2026-05-07 15:35 | 50.08550 | 42.56563 | 38633 ft | 488 kts | 138° |
| 2026-05-07 15:35 | 50.06005 | 42.60067 | 37573 ft | 492 kts | 138° |
| 2026-05-07 15:35 | 50.03426 | 42.63614 | 36285 ft | 494 kts | 138° |
| 2026-05-07 15:36 | 50.00053 | 42.68246 | 35247 ft | 491 kts | 139° |
| 2026-05-07 15:36 | 49.98354 | 42.70576 | 34631 ft | 491 kts | 139° |
| 2026-05-07 15:36 | 49.95816 | 42.74054 | 33561 ft | 492 kts | 139° |
| 2026-05-07 15:36 | 49.93265 | 42.77543 | 32578 ft | 490 kts | 138° |
| 2026-05-07 15:37 | 49.90701 | 42.81047 | 31633 ft | 490 kts | 138° |
| 2026-05-07 15:37 | 49.88211 | 42.84445 | 30715 ft | 489 kts | 137° |
| 2026-05-07 15:37 | 49.85713 | 42.87848 | 30133 ft | 481 kts | 137° |
| 2026-05-07 15:37 | 49.83248 | 42.91200 | 29663 ft | 472 kts | 137° |
| 2026-05-07 15:38 | 49.80789 | 42.94541 | 29135 ft | 465 kts | 137° |
| 2026-05-07 15:38 | 49.78389 | 42.97797 | 28590 ft | 459 kts | 137° |
| 2026-05-07 15:38 | 49.76024 | 43.01003 | 28038 ft | 454 kts | 137° |
| 2026-05-07 15:38 | 49.73676 | 43.04180 | 27489 ft | 448 kts | 137° |
| 2026-05-07 15:39 | 49.71356 | 43.07315 | 26937 ft | 443 kts | 137° |
| 2026-05-07 15:39 | 49.69024 | 43.10464 | 26383 ft | 438 kts | 137° |
| 2026-05-07 15:39 | 49.66761 | 43.13514 | 25829 ft | 437 kts | 137° |
| 2026-05-07 15:39 | 49.64454 | 43.16621 | 25260 ft | 448 kts | 137° |
| 2026-05-07 15:40 | 49.62101 | 43.19784 | 24672 ft | 448 kts | 137° |
| 2026-05-07 15:40 | 49.59788 | 43.22891 | 24089 ft | 445 kts | 137° |
| 2026-05-07 15:40 | 49.57448 | 43.26027 | 23495 ft | 441 kts | 137° |
| 2026-05-07 15:40 | 49.55162 | 43.29088 | 22926 ft | 437 kts | 136° |
| 2026-05-07 15:41 | 49.52869 | 43.32153 | 22332 ft | 434 kts | 136° |
| 2026-05-07 15:41 | 49.50597 | 43.35188 | 21744 ft | 432 kts | 136° |
| 2026-05-07 15:41 | 49.48329 | 43.38213 | 21148 ft | 430 kts | 136° |
| 2026-05-07 15:41 | 49.46083 | 43.41207 | 20546 ft | 427 kts | 136° |
| 2026-05-07 15:42 | 49.43869 | 43.44151 | 19956 ft | 424 kts | 136° |
| 2026-05-07 15:42 | 49.41629 | 43.47128 | 19345 ft | 421 kts | 136° |
| 2026-05-07 15:42 | 49.39439 | 43.50034 | 18750 ft | 418 kts | 136° |
| 2026-05-07 15:42 | 49.37264 | 43.52919 | 18159 ft | 414 kts | 135° |
| 2026-05-07 15:43 | 49.35112 | 43.55767 | 17566 ft | 411 kts | 135° |
| 2026-05-07 15:43 | 49.32952 | 43.58624 | 16964 ft | 407 kts | 135° |
| 2026-05-07 15:43 | 49.30817 | 43.61443 | 16380 ft | 404 kts | 135° |
| 2026-05-07 15:43 | 49.28712 | 43.64222 | 15769 ft | 401 kts | 135° |
| 2026-05-07 15:44 | 49.26599 | 43.67004 | 15181 ft | 398 kts | 135° |
| 2026-05-07 15:44 | 49.24567 | 43.69764 | 14613 ft | 392 kts | 132° |
| 2026-05-07 15:44 | 49.22649 | 43.72669 | 14154 ft | 385 kts | 131° |
| 2026-05-07 15:44 | 49.20773 | 43.75525 | 13673 ft | 380 kts | 130° |
| 2026-05-07 15:45 | 49.18911 | 43.78348 | 13199 ft | 374 kts | 130° |
| 2026-05-07 15:45 | 49.17067 | 43.81131 | 12725 ft | 369 kts | 130° |
| 2026-05-07 15:45 | 49.15267 | 43.83841 | 12250 ft | 365 kts | 131° |
| 2026-05-07 15:45 | 49.13470 | 43.86537 | 11792 ft | 360 kts | 131° |
| 2026-05-07 15:46 | 49.09936 | 43.91821 | 10887 ft | 352 kts | 131° |
| 2026-05-07 15:46 | 49.08203 | 43.94405 | 10436 ft | 348 kts | 131° |
| 2026-05-07 15:46 | 49.06488 | 43.96957 | 9991 ft | 344 kts | 130° |
| 2026-05-07 15:47 | 49.04711 | 43.99342 | 9439 ft | 348 kts | 142° |
| 2026-05-07 15:47 | 49.02580 | 44.01034 | 9317 ft | 337 kts | 150° |
| 2026-05-07 15:47 | 49.00486 | 44.02462 | 9273 ft | 322 kts | 151° |
| 2026-05-07 15:47 | 48.98477 | 44.03802 | 9253 ft | 307 kts | 151° |
| 2026-05-07 15:48 | 48.96576 | 44.05065 | 9217 ft | 292 kts | 151° |
| 2026-05-07 15:48 | 48.94757 | 44.06274 | 8861 ft | 284 kts | 151° |
| 2026-05-07 15:48 | 48.92958 | 44.07471 | 8337 ft | 283 kts | 151° |
| 2026-05-07 15:48 | 48.91157 | 44.08669 | 7822 ft | 281 kts | 151° |
| 2026-05-07 15:49 | 48.89347 | 44.09767 | 7340 ft | 282 kts | 162° |
| 2026-05-07 15:49 | 48.87402 | 44.09835 | 6818 ft | 287 kts | 191° |
| 2026-05-07 15:49 | 48.85518 | 44.08902 | 6336 ft | 287 kts | 201° |
| 2026-05-07 15:49 | 48.83734 | 44.07744 | 5849 ft | 286 kts | 202° |
| 2026-05-07 15:50 | 48.81910 | 44.06525 | 5347 ft | 284 kts | 202° |
| 2026-05-07 15:50 | 48.80020 | 44.05835 | 4845 ft | 278 kts | 176° |
| 2026-05-07 15:50 | 48.78148 | 44.06205 | 4587 ft | 263 kts | 163° |
| 2026-05-07 15:50 | 48.76435 | 44.06821 | 4508 ft | 245 kts | 161° |
| 2026-05-07 15:51 | 48.74829 | 44.07454 | 4422 ft | 229 kts | 160° |
| 2026-05-07 15:51 | 48.73391 | 44.08066 | 4235 ft | 203 kts | 150° |
| 2026-05-07 15:51 | 48.72374 | 44.09311 | 3844 ft | 179 kts | 112° |
| 2026-05-07 15:51 | 48.71960 | 44.10925 | 3652 ft | 156 kts | 101° |
| 2026-05-07 15:52 | 48.71663 | 44.12404 | 3554 ft | 133 kts | 90° |
| 2026-05-07 15:52 | 48.71683 | 44.13717 | 3205 ft | 120 kts | 66° |
| 2026-05-07 15:52 | 48.72021 | 44.14837 | 2809 ft | 117 kts | 58° |
| 2026-05-07 15:52 | 48.72392 | 44.15949 | 2676 ft | 123 kts | 59° |
| 2026-05-07 15:53 | 48.72767 | 44.17119 | 2515 ft | 124 kts | 59° |
| 2026-05-07 15:53 | 48.73142 | 44.18288 | 2349 ft | 124 kts | 59° |
| 2026-05-07 15:53 | 48.73520 | 44.19466 | 2190 ft | 125 kts | 59° |
| 2026-05-07 15:53 | 48.73902 | 44.20655 | 2024 ft | 125 kts | 59° |
| 2026-05-07 15:54 | 48.74282 | 44.21843 | 1858 ft | 127 kts | 60° |
| 2026-05-07 15:54 | 48.74675 | 44.23071 | 1688 ft | 129 kts | 60° |
| 2026-05-07 15:54 | 48.75066 | 44.24291 | 1517 ft | 131 kts | 60° |
| 2026-05-07 15:54 | 48.75463 | 44.25533 | 1340 ft | 131 kts | 61° |
| 2026-05-07 15:55 | 48.75861 | 44.26780 | 1165 ft | 131 kts | 62° |
| 2026-05-07 15:55 | 48.76264 | 44.28041 | 988 ft | 135 kts | 62° |
| 2026-05-07 15:55 | 48.76678 | 44.29336 | 798 ft | 139 kts | 62° |
| 2026-05-07 15:55 | 48.77111 | 44.30662 | 581 ft | 142 kts | 63° |
| 2026-05-07 15:56 | 48.77530 | 44.31989 | 416 ft | 135 kts | 63° |
| 2026-05-07 15:56 | 48.77878 | 44.33084 | 431 ft | 93 kts | 64° |
| 2026-05-07 15:56 | 48.78094 | 44.33764 | 444 ft | 48 kts | 64° |
| 2026-05-07 15:56 | 48.78220 | 44.34167 | 453 ft | 36 kts | 64° |
| 2026-05-07 15:57 | 48.78296 | 44.34340 | 458 ft | 18 kts | 15° |
| 2026-05-07 15:57 | 48.78392 | 44.34216 | 456 ft | 20 kts | 316° |
| 2026-05-07 15:57 | 48.78527 | 44.34171 | 454 ft | 21 kts | 346° |
| 2026-05-07 15:57 | 48.78648 | 44.34187 | 452 ft | 17 kts | 59° |
| 2026-05-07 15:58 | 48.78698 | 44.34360 | 455 ft | 18 kts | 69° |
| 2026-05-07 15:58 | 48.78745 | 44.34544 | 459 ft | 18 kts | 69° |
| 2026-05-07 15:58 | 48.78789 | 44.34635 | 461 ft | 9 kts | 348° |
| 2026-05-07 15:58 | 48.78818 | 44.34617 | 460 ft | 0 kts | 337° |